Accueil
METAR-TAF:

METAR-TAF

Aéroports :

Aéroport international de Bilbao

Bilbao, Espagne

latitude: 43-18N, longitude: 002-56W, altitude: 42 m

Observation

Le bulletin a été fait il y a 39 minutes, à 13:00 UTC
Vent 6 kt de sud-est, variant entre est et sud/sud-est
Température 14°C
Humidité 63%
Pression 1015 hPa
Visibilité 10 km ou plus
pas de nuages en-dessous de 1500 mètres et pas de cumulonimbus.

METAR: LEBB 191300Z 13006KT 080V160 CAVOK 14/07 Q1015 NOSIG

Heure: 14:39 (13:39 UTC)

Prévision

Le bulletin a été fait il y a 2 heures et 39 minutes, à 11:00 UTC
Prévision valable du 19 à 12 UTC au 20 à 12 UTC
Vent 5 kt de sud
Visibilité 10 km ou plus
Quelques nuages à une hauteur de 4000 ft

TAF: LEBB 191100Z 1912/2012 18005KT 9999 FEW040 TX15/1915Z TN07/2006Z

Observations et prévisions météorologiques de plus de 4000 aéroports (messages METAR et TAF).

Les stations disponibles sont représentées par des disques jaunes et rouges sur la carte.

Passer la souris dessus pour voir le nom de la station.

Cliquer dessus pour voir les observations et prévisions météorologiques.

Pour changer de carte: cliquez sur les boutons verts avec une croix noire pour zoomer, sur le bouton vert avec un tiret pour effectuer un zoom arrière, ou sur les flèches vertes pour les cartes adjacentes.


METAR-TAF: